createdAt,value
2018-02-10T00:00:02.497Z,28.30
2018-02-10T00:01:02.484Z,27.90
2018-02-10T00:02:02.474Z,27.90
2018-02-10T00:03:02.461Z,27.00
2018-02-10T00:04:02.451Z,27.30
2018-02-10T00:05:02.438Z,29.30
2018-02-10T00:06:02.427Z,28.20
2018-02-10T00:07:02.420Z,28.30
2018-02-10T00:08:02.412Z,28.20
2018-02-10T00:09:02.397Z,28.50
2018-02-10T00:10:02.387Z,27.50
2018-02-10T00:11:02.375Z,28.80
2018-02-10T00:12:02.363Z,28.20
2018-02-10T00:13:02.351Z,28.80
2018-02-10T00:14:02.340Z,26.70
2018-02-10T00:15:02.326Z,28.20
2018-02-10T00:16:02.317Z,27.10
2018-02-10T00:17:02.303Z,28.80
2018-02-10T00:18:02.290Z,30.00
2018-02-10T00:19:02.280Z,29.50
2018-02-10T00:20:02.268Z,28.20
2018-02-10T00:21:02.255Z,30.10
2018-02-10T00:22:02.244Z,29.20
2018-02-10T00:23:02.236Z,29.10
2018-02-10T00:24:02.225Z,31.20
2018-02-10T00:25:02.214Z,30.70
2018-02-10T00:26:02.202Z,29.60
2018-02-10T00:27:02.192Z,29.70
2018-02-10T00:28:02.180Z,31.10
2018-02-10T00:29:02.166Z,29.30
2018-02-10T00:30:02.156Z,30.90
2018-02-10T00:31:02.142Z,31.40
2018-02-10T00:32:02.129Z,31.40
2018-02-10T00:33:02.117Z,30.00
2018-02-10T00:34:02.106Z,31.20
2018-02-10T00:35:02.095Z,30.90
2018-02-10T00:36:02.085Z,32.30
2018-02-10T00:37:02.071Z,29.90
2018-02-10T00:38:02.060Z,30.70
2018-02-10T00:39:02.053Z,31.20
2018-02-10T00:40:02.045Z,31.80
2018-02-10T00:41:02.029Z,30.40
2018-02-10T00:42:02.018Z,31.30
2018-02-10T00:43:02.006Z,31.30
2018-02-10T00:44:01.995Z,33.60
2018-02-10T00:45:01.983Z,32.90
2018-02-10T00:46:01.971Z,30.70
2018-02-10T00:47:01.956Z,31.20
2018-02-10T00:48:01.945Z,32.60
2018-02-10T00:49:01.932Z,32.10
2018-02-10T00:50:01.921Z,31.80
2018-02-10T00:51:01.915Z,31.60
2018-02-10T00:52:01.899Z,33.10
2018-02-10T00:53:01.888Z,31.80
2018-02-10T00:54:01.875Z,33.10
2018-02-10T00:55:01.868Z,32.90
2018-02-10T00:56:01.856Z,32.40
2018-02-10T00:57:01.844Z,31.60
2018-02-10T00:58:01.833Z,30.80
2018-02-10T00:59:01.821Z,32.70
2018-02-10T01:00:01.811Z,31.80
2018-02-10T01:01:01.798Z,30.30
2018-02-10T01:02:01.787Z,33.90
2018-02-10T01:03:01.771Z,31.90
2018-02-10T01:04:01.759Z,31.00
2018-02-10T01:05:01.748Z,32.30
2018-02-10T01:06:01.736Z,31.00
2018-02-10T01:07:01.724Z,33.40
2018-02-10T01:08:01.714Z,30.50
2018-02-10T01:09:01.701Z,32.10
2018-02-10T01:10:01.692Z,31.70
2018-02-10T01:11:01.683Z,33.40
2018-02-10T01:12:01.673Z,32.80
2018-02-10T01:13:01.659Z,31.10
2018-02-10T01:14:01.648Z,33.10
2018-02-10T01:15:01.637Z,31.50
2018-02-10T01:16:01.624Z,32.10
2018-02-10T01:17:01.614Z,30.50
2018-02-10T01:18:01.603Z,32.20
2018-02-10T01:19:01.587Z,32.40
2018-02-10T01:20:01.575Z,33.20
2018-02-10T01:21:01.562Z,32.20
2018-02-10T01:22:01.551Z,31.50
2018-02-10T01:23:01.540Z,34.00
2018-02-10T01:24:01.529Z,33.10
2018-02-10T01:25:01.518Z,31.60
2018-02-10T01:26:01.505Z,34.10
2018-02-10T01:27:01.498Z,33.70
2018-02-10T01:28:01.487Z,33.80
2018-02-10T01:29:01.475Z,33.10
2018-02-10T01:30:01.464Z,32.20
2018-02-10T01:31:01.452Z,31.70
2018-02-10T01:32:01.441Z,33.20
2018-02-10T01:33:01.429Z,33.70
2018-02-10T01:34:01.417Z,32.90
2018-02-10T01:35:01.402Z,34.20
2018-02-10T01:36:01.396Z,33.30
2018-02-10T01:37:01.379Z,34.00
2018-02-10T01:38:01.367Z,35.80
2018-02-10T01:39:01.358Z,34.30
2018-02-10T01:40:01.345Z,35.40
2018-02-10T01:41:01.333Z,34.40
2018-02-10T01:42:01.321Z,37.10
2018-02-10T01:43:01.315Z,38.20
2018-02-10T01:44:01.303Z,39.60
2018-02-10T01:45:01.291Z,40.80
2018-02-10T01:46:01.279Z,43.60
2018-02-10T01:47:01.268Z,45.80
2018-02-10T01:48:01.257Z,42.60
2018-02-10T01:49:01.245Z,44.10
2018-02-10T01:50:01.234Z,45.60
2018-02-10T01:51:01.220Z,44.80
2018-02-10T01:52:01.207Z,43.40
2018-02-10T01:53:01.194Z,45.90
2018-02-10T01:54:01.183Z,46.30
2018-02-10T01:55:01.176Z,45.70
2018-02-10T01:56:01.164Z,48.40
2018-02-10T01:57:01.152Z,44.90
2018-02-10T01:58:01.140Z,47.30
2018-02-10T01:59:01.125Z,44.00
2018-02-10T02:00:01.118Z,44.10
2018-02-10T02:01:01.101Z,44.50
2018-02-10T02:02:01.090Z,41.90
2018-02-10T02:03:01.077Z,42.20
2018-02-10T02:04:01.066Z,41.10
2018-02-10T02:05:01.053Z,40.40
2018-02-10T02:06:01.042Z,39.50
2018-02-10T02:07:01.035Z,40.80
2018-02-10T02:08:01.022Z,39.40
2018-02-10T02:09:01.010Z,38.60
2018-02-10T02:10:01.000Z,36.40
2018-02-10T02:11:00.988Z,38.70
2018-02-10T02:12:00.977Z,36.90
2018-02-10T02:13:01.014Z,36.40
2018-02-10T02:14:00.953Z,35.40
2018-02-10T02:15:00.938Z,35.90
2018-02-10T02:16:00.926Z,36.80
2018-02-10T02:17:00.914Z,35.80
2018-02-10T02:18:00.901Z,36.40
2018-02-10T02:19:00.891Z,36.40
2018-02-10T02:20:00.879Z,37.00
2018-02-10T02:21:00.865Z,36.10
2018-02-10T02:22:00.855Z,37.20
2018-02-10T02:23:00.848Z,37.50
2018-02-10T02:24:00.837Z,37.40
2018-02-10T02:25:00.824Z,36.10
2018-02-10T02:26:00.813Z,35.00
2018-02-10T02:27:00.801Z,37.60
2018-02-10T02:28:00.790Z,37.20
2018-02-10T02:29:00.778Z,34.40
2018-02-10T02:30:00.766Z,36.20
2018-02-10T02:31:00.751Z,36.50
2018-02-10T02:32:00.740Z,35.10
2018-02-10T02:33:00.727Z,35.50
2018-02-10T02:34:00.716Z,36.00
2018-02-10T02:35:00.705Z,34.40
2018-02-10T02:36:00.693Z,36.10
2018-02-10T02:37:00.680Z,35.30
2018-02-10T02:38:00.670Z,35.80
2018-02-10T02:39:00.663Z,35.10
2018-02-10T02:40:00.651Z,35.30
2018-02-10T02:41:00.640Z,35.00
2018-02-10T02:42:00.628Z,37.50
2018-02-10T02:43:00.618Z,35.60
2018-02-10T02:44:00.606Z,33.20
2018-02-10T02:45:00.594Z,35.70
2018-02-10T02:46:00.585Z,35.80
2018-02-10T02:47:00.567Z,35.20
2018-02-10T02:48:00.556Z,35.20
2018-02-10T02:49:00.545Z,34.70
2018-02-10T02:50:00.534Z,35.50
2018-02-10T02:51:00.522Z,35.00
2018-02-10T02:52:00.514Z,33.70
2018-02-10T02:53:00.498Z,36.10
2018-02-10T02:54:00.488Z,35.10
2018-02-10T02:55:00.480Z,35.70
2018-02-10T02:56:00.470Z,34.80
2018-02-10T02:57:00.458Z,34.30
2018-02-10T02:58:00.446Z,35.20
2018-02-10T02:59:00.431Z,35.60
2018-02-10T03:00:00.419Z,34.70
2018-02-10T03:01:00.407Z,33.80
2018-02-10T03:02:00.397Z,35.30
2018-02-10T03:03:00.389Z,34.30
2018-02-10T03:04:00.378Z,34.10
2018-02-10T03:05:00.366Z,34.40
2018-02-10T03:06:00.357Z,35.00
2018-02-10T03:07:00.345Z,34.00
2018-02-10T03:08:00.333Z,34.00
2018-02-10T03:09:00.320Z,34.90
2018-02-10T03:10:00.309Z,35.00
2018-02-10T03:11:00.294Z,35.50
2018-02-10T03:12:00.283Z,36.90
2018-02-10T03:13:00.270Z,36.40
2018-02-10T03:14:00.259Z,35.90
2018-02-10T03:15:00.248Z,35.10
2018-02-10T03:16:00.237Z,35.80
2018-02-10T03:17:00.225Z,35.20
2018-02-10T03:18:00.214Z,35.30
2018-02-10T03:19:00.207Z,34.10
2018-02-10T03:20:00.196Z,35.90
2018-02-10T03:21:00.183Z,34.80
2018-02-10T03:22:00.172Z,33.40
2018-02-10T03:23:00.161Z,35.90
2018-02-10T03:24:00.151Z,35.80
2018-02-10T03:25:00.137Z,36.20
2018-02-10T03:26:00.127Z,35.80
2018-02-10T03:27:00.113Z,35.90
2018-02-10T03:28:00.101Z,38.30
2018-02-10T03:29:00.089Z,36.60
2018-02-10T03:30:00.104Z,37.30
2018-02-10T03:31:00.067Z,36.90
2018-02-10T03:32:00.059Z,37.40
2018-02-10T03:33:00.046Z,34.90
2018-02-10T03:34:00.039Z,36.70
2018-02-10T03:35:00.032Z,38.40
2018-02-10T03:36:00.026Z,38.00
2018-02-10T03:37:00.006Z,37.40
2018-02-10T03:37:59.992Z,36.20
2018-02-10T03:38:59.980Z,36.80
2018-02-10T03:39:59.970Z,36.10
2018-02-10T03:40:59.958Z,37.90
2018-02-10T03:41:59.947Z,36.30
2018-02-10T03:42:59.932Z,35.10
2018-02-10T03:43:59.921Z,36.40
2018-02-10T03:44:59.909Z,36.60
2018-02-10T03:45:59.897Z,36.00
2018-02-10T03:46:59.887Z,36.50
2018-02-10T03:47:59.882Z,34.60
2018-02-10T03:48:59.864Z,37.50
2018-02-10T03:49:59.853Z,36.90
2018-02-10T03:50:59.848Z,37.30
2018-02-10T03:51:59.836Z,38.10
2018-02-10T03:52:59.825Z,38.70
2018-02-10T03:53:59.813Z,38.60
2018-02-10T03:54:59.803Z,37.90
2018-02-10T03:55:59.791Z,39.20
2018-02-10T03:56:59.780Z,39.20
2018-02-10T03:57:59.770Z,39.20
2018-02-10T03:58:59.755Z,37.00
2018-02-10T03:59:59.744Z,39.40
2018-02-10T04:00:59.732Z,39.70
2018-02-10T04:01:59.721Z,40.20
2018-02-10T04:02:59.715Z,38.90
2018-02-10T04:03:59.703Z,40.00
2018-02-10T04:04:59.692Z,40.70
2018-02-10T04:05:59.680Z,40.10
2018-02-10T04:06:59.666Z,40.90
2018-02-10T04:07:59.656Z,38.80
2018-02-10T04:08:59.645Z,41.40
2018-02-10T04:09:59.633Z,41.00
2018-02-10T04:10:59.622Z,40.00
2018-02-10T04:11:59.633Z,43.10
2018-02-10T04:12:59.599Z,41.90
2018-02-10T04:13:59.589Z,41.90
2018-02-10T04:14:59.582Z,43.60
2018-02-10T04:15:59.572Z,43.60
2018-02-10T04:16:59.560Z,44.70
2018-02-10T04:17:59.549Z,43.90
2018-02-10T04:18:59.538Z,44.90
2018-02-10T04:19:59.528Z,46.50
2018-02-10T04:20:59.515Z,46.30
2018-02-10T04:21:59.505Z,46.50
2018-02-10T04:22:59.490Z,43.30
2018-02-10T04:23:59.483Z,44.90
2018-02-10T04:24:59.468Z,43.30
2018-02-10T04:25:59.457Z,44.20
2018-02-10T04:26:59.446Z,44.60
2018-02-10T04:27:59.436Z,44.20
2018-02-10T04:28:59.426Z,44.50
2018-02-10T04:29:59.415Z,44.80
2018-02-10T04:30:59.407Z,43.10
2018-02-10T04:31:59.397Z,43.20
2018-02-10T04:32:59.385Z,43.80
2018-02-10T04:33:59.375Z,43.70
2018-02-10T04:34:59.363Z,41.70
2018-02-10T04:35:59.353Z,41.20
2018-02-10T04:36:59.342Z,42.80
2018-02-10T04:37:59.332Z,41.30
2018-02-10T04:38:59.316Z,41.10
2018-02-10T04:39:59.304Z,42.10
2018-02-10T04:40:59.292Z,40.20
2018-02-10T04:41:59.282Z,38.60
2018-02-10T04:42:59.271Z,39.30
2018-02-10T04:43:59.261Z,42.10
2018-02-10T04:44:59.249Z,41.30
2018-02-10T04:45:59.239Z,40.80
2018-02-10T04:46:59.232Z,39.40
2018-02-10T04:47:59.221Z,36.80
2018-02-10T04:48:59.209Z,40.60
2018-02-10T04:49:59.199Z,39.30
2018-02-10T04:50:59.188Z,40.30
2018-02-10T04:51:59.177Z,39.00
2018-02-10T04:52:59.170Z,39.30
2018-02-10T04:53:59.154Z,40.00
2018-02-10T04:54:59.139Z,39.90
2018-02-10T04:55:59.129Z,37.70
2018-02-10T04:56:59.117Z,38.50
2018-02-10T04:57:59.106Z,37.90
2018-02-10T04:58:59.095Z,37.10
2018-02-10T04:59:59.088Z,38.10
2018-02-10T05:00:59.073Z,37.00
2018-02-10T05:01:59.062Z,37.10
2018-02-10T05:02:59.055Z,37.30
2018-02-10T05:03:59.045Z,37.80
2018-02-10T05:04:59.033Z,37.40
2018-02-10T05:05:59.022Z,38.40
2018-02-10T05:06:59.012Z,36.30
2018-02-10T05:07:59.001Z,38.30
2018-02-10T05:08:58.990Z,37.10
2018-02-10T05:09:58.979Z,36.80
2018-02-10T05:10:58.964Z,36.90
2018-02-10T05:11:58.952Z,36.60
2018-02-10T05:12:58.942Z,37.00
2018-02-10T05:13:58.932Z,36.80
2018-02-10T05:14:58.919Z,37.70
2018-02-10T05:15:58.909Z,38.00
2018-02-10T05:16:58.897Z,38.20
2018-02-10T05:17:58.887Z,37.10
2018-02-10T05:18:58.880Z,36.50
2018-02-10T05:19:58.870Z,36.10
2018-02-10T05:20:58.858Z,37.50
2018-02-10T05:21:58.847Z,37.20
2018-02-10T05:22:58.836Z,36.90
2018-02-10T05:23:58.826Z,36.10
2018-02-10T05:24:58.815Z,36.50
2018-02-10T05:25:58.805Z,36.70
2018-02-10T05:26:58.789Z,37.80
2018-02-10T05:27:58.778Z,37.10
2018-02-10T05:28:58.767Z,37.90
2018-02-10T05:29:58.756Z,37.80
2018-02-10T05:30:58.744Z,37.90
2018-02-10T05:31:58.735Z,37.20
2018-02-10T05:32:58.723Z,36.70
2018-02-10T05:33:58.712Z,37.90
2018-02-10T05:34:58.705Z,36.90
2018-02-10T05:35:58.696Z,34.40
2018-02-10T05:36:58.684Z,36.40
2018-02-10T05:37:58.673Z,36.50
2018-02-10T05:38:58.663Z,35.90
2018-02-10T05:39:58.652Z,35.90
2018-02-10T05:40:58.647Z,35.70
2018-02-10T05:41:58.630Z,36.10
2018-02-10T05:42:58.614Z,36.40
2018-02-10T05:43:58.604Z,37.00
2018-02-10T05:44:58.593Z,34.70
2018-02-10T05:45:58.582Z,36.50
2018-02-10T05:46:58.571Z,35.20
2018-02-10T05:47:58.561Z,34.80
2018-02-10T05:48:58.549Z,34.00
2018-02-10T05:49:58.538Z,33.50
2018-02-10T05:50:58.532Z,32.80
2018-02-10T05:51:58.527Z,33.70
2018-02-10T05:52:58.510Z,34.10
2018-02-10T05:53:58.499Z,34.20
2018-02-10T05:54:58.489Z,34.50
2018-02-10T05:55:58.478Z,34.90
2018-02-10T05:56:58.466Z,33.70
2018-02-10T05:57:58.455Z,34.20
2018-02-10T05:58:58.441Z,34.60
2018-02-10T05:59:58.430Z,33.80
2018-02-10T06:00:58.419Z,34.50
2018-02-10T06:01:58.408Z,34.30
2018-02-10T06:02:58.397Z,33.70
2018-02-10T06:03:58.387Z,33.40
2018-02-10T06:04:58.377Z,35.50
2018-02-10T06:05:58.365Z,35.30
2018-02-10T06:06:58.359Z,33.90
2018-02-10T06:07:58.348Z,35.70
2018-02-10T06:08:58.335Z,34.70
2018-02-10T06:09:58.326Z,34.80
2018-02-10T06:10:58.311Z,33.30
2018-02-10T06:11:58.300Z,33.30
2018-02-10T06:12:58.289Z,34.40
2018-02-10T06:13:58.278Z,34.80
2018-02-10T06:14:58.271Z,35.50
2018-02-10T06:15:58.262Z,33.80
2018-02-10T06:16:58.250Z,34.30
2018-02-10T06:17:58.239Z,35.50
2018-02-10T06:18:58.228Z,35.10
2018-02-10T06:19:58.217Z,35.60
2018-02-10T06:20:58.205Z,35.20
2018-02-10T06:21:58.195Z,34.00
2018-02-10T06:22:58.180Z,35.20
2018-02-10T06:23:58.169Z,36.50
2018-02-10T06:24:58.156Z,35.80
2018-02-10T06:25:58.147Z,34.80
2018-02-10T06:26:58.136Z,35.90
2018-02-10T06:27:58.124Z,35.40
2018-02-10T06:28:58.113Z,35.10
2018-02-10T06:29:58.103Z,34.60
2018-02-10T06:30:58.096Z,33.50
2018-02-10T06:31:58.086Z,33.30
2018-02-10T06:32:58.074Z,33.10
2018-02-10T06:33:58.110Z,32.20
2018-02-10T06:34:58.052Z,32.30
2018-02-10T06:35:58.041Z,32.70
2018-02-10T06:36:58.030Z,33.40
2018-02-10T06:37:58.018Z,34.10
2018-02-10T06:38:58.004Z,33.40
2018-02-10T06:39:57.993Z,34.00
2018-02-10T06:40:57.980Z,33.50
2018-02-10T06:41:57.970Z,34.10
2018-02-10T06:42:57.960Z,33.10
2018-02-10T06:43:57.948Z,34.30
2018-02-10T06:44:57.936Z,33.30
2018-02-10T06:45:57.926Z,33.30
2018-02-10T06:46:57.920Z,33.20
2018-02-10T06:47:57.909Z,31.90
2018-02-10T06:48:57.898Z,32.10
2018-02-10T06:49:57.886Z,31.80
2018-02-10T06:50:57.914Z,33.60
2018-02-10T06:51:57.865Z,33.40
2018-02-10T06:52:57.852Z,32.80
2018-02-10T06:53:57.842Z,34.30
2018-02-10T06:54:57.828Z,34.80
2018-02-10T06:55:57.817Z,33.60
2018-02-10T06:56:57.805Z,32.60
2018-02-10T06:57:57.794Z,32.90
2018-02-10T06:58:57.784Z,31.80
2018-02-10T06:59:57.775Z,31.70
2018-02-10T07:00:57.760Z,33.30
2018-02-10T07:01:57.751Z,32.40
2018-02-10T07:02:57.744Z,31.30
2018-02-10T07:03:57.732Z,31.70
2018-02-10T07:04:57.721Z,31.20
2018-02-10T07:05:57.710Z,30.10
2018-02-10T07:06:57.700Z,30.90
2018-02-10T07:07:57.689Z,31.20
2018-02-10T07:08:57.678Z,30.80
2018-02-10T07:09:57.667Z,31.30
2018-02-10T07:10:57.652Z,32.00
2018-02-10T07:11:57.641Z,32.00
2018-02-10T07:12:57.629Z,31.20
2018-02-10T07:13:57.619Z,30.20
2018-02-10T07:14:57.613Z,31.50
2018-02-10T07:15:57.602Z,30.40
2018-02-10T07:16:57.590Z,30.30
2018-02-10T07:17:57.579Z,30.40
2018-02-10T07:18:57.564Z,31.10
2018-02-10T07:19:57.554Z,30.20
2018-02-10T07:20:57.544Z,31.20
2018-02-10T07:21:57.537Z,30.00
2018-02-10T07:22:57.520Z,28.70
2018-02-10T07:23:57.510Z,31.10
2018-02-10T07:24:57.498Z,29.00
2018-02-10T07:25:57.488Z,29.00
2018-02-10T07:26:57.482Z,29.60
2018-02-10T07:27:57.471Z,30.20
2018-02-10T07:28:57.459Z,29.10
2018-02-10T07:29:57.449Z,30.20
2018-02-10T07:30:57.438Z,29.40
2018-02-10T07:31:57.427Z,31.80
2018-02-10T07:32:57.415Z,32.20
2018-02-10T07:33:57.410Z,33.30
2018-02-10T07:34:57.390Z,32.70
2018-02-10T07:35:57.380Z,32.80
2018-02-10T07:36:57.367Z,33.70
2018-02-10T07:37:57.357Z,31.40
2018-02-10T07:38:57.347Z,33.70
2018-02-10T07:39:57.336Z,32.80
2018-02-10T07:40:57.325Z,33.60
2018-02-10T07:41:57.314Z,34.00
2018-02-10T07:42:57.308Z,33.10
2018-02-10T07:43:57.299Z,32.70
2018-02-10T07:44:57.286Z,33.40
2018-02-10T07:45:57.275Z,34.80
2018-02-10T07:46:57.264Z,34.60
2018-02-10T07:47:57.253Z,33.50
2018-02-10T07:48:57.241Z,35.50
2018-02-10T07:49:57.231Z,36.10
2018-02-10T07:50:57.221Z,34.60
2018-02-10T07:51:57.205Z,35.80
2018-02-10T07:52:57.218Z,35.30
2018-02-10T07:53:57.183Z,35.40
2018-02-10T07:54:57.171Z,34.40
2018-02-10T07:55:57.165Z,34.60
2018-02-10T07:56:57.150Z,36.00
2018-02-10T07:57:57.139Z,36.40
2018-02-10T07:58:57.134Z,34.60
2018-02-10T07:59:57.126Z,35.10
2018-02-10T08:00:57.110Z,35.60
2018-02-10T08:01:57.117Z,34.10
2018-02-10T08:02:57.089Z,35.70
2018-02-10T08:03:57.077Z,36.00
2018-02-10T08:04:57.066Z,34.90
2018-02-10T08:05:57.056Z,35.70
2018-02-10T08:06:57.043Z,35.60
2018-02-10T08:07:57.031Z,35.60
2018-02-10T08:08:57.019Z,34.10
2018-02-10T08:09:57.008Z,34.40
2018-02-10T08:10:57.000Z,33.40
2018-02-10T08:11:56.986Z,34.20
2018-02-10T08:12:56.975Z,33.90
2018-02-10T08:13:56.963Z,34.40
2018-02-10T08:14:56.957Z,33.00
2018-02-10T08:15:56.952Z,32.10
2018-02-10T08:16:56.936Z,32.70
2018-02-10T08:17:56.928Z,34.70
2018-02-10T08:18:56.912Z,32.10
2018-02-10T08:19:56.934Z,29.70
2018-02-10T08:20:56.886Z,31.60
2018-02-10T08:21:56.876Z,30.60
2018-02-10T08:22:56.869Z,31.10
2018-02-10T08:23:56.859Z,31.80
2018-02-10T08:24:56.847Z,32.80
2018-02-10T08:25:56.836Z,31.50
2018-02-10T08:26:56.826Z,32.00
2018-02-10T08:27:56.814Z,30.30
2018-02-10T08:28:56.804Z,33.40
2018-02-10T08:29:56.791Z,31.50
2018-02-10T08:30:56.777Z,29.90
2018-02-10T08:31:56.767Z,31.40
2018-02-10T08:32:56.754Z,30.40
2018-02-10T08:33:56.743Z,31.50
2018-02-10T08:34:56.733Z,31.30
2018-02-10T08:35:56.722Z,30.20
2018-02-10T08:36:56.710Z,31.40
2018-02-10T08:37:56.700Z,29.80
2018-02-10T08:38:56.696Z,30.20
2018-02-10T08:39:56.682Z,29.90
2018-02-10T08:40:56.682Z,31.10
2018-02-10T08:41:56.664Z,30.00
2018-02-10T08:42:56.650Z,30.80
2018-02-10T08:43:56.638Z,29.70
2018-02-10T08:44:56.626Z,30.50
2018-02-10T08:45:56.615Z,29.00
2018-02-10T08:46:56.601Z,30.50
2018-02-10T08:47:56.589Z,30.40
2018-02-10T08:48:56.579Z,30.20
2018-02-10T08:49:56.567Z,29.10
2018-02-10T08:50:56.559Z,31.00
2018-02-10T08:51:56.546Z,30.10
2018-02-10T08:52:56.534Z,29.90
2018-02-10T08:53:56.524Z,29.80
2018-02-10T08:54:56.517Z,29.60
2018-02-10T08:55:56.507Z,29.60
2018-02-10T08:56:56.495Z,29.40
2018-02-10T08:57:56.484Z,31.20
2018-02-10T08:58:56.474Z,29.60
2018-02-10T08:59:56.462Z,29.40
2018-02-10T09:00:56.451Z,30.20
2018-02-10T09:01:56.440Z,28.70
2018-02-10T09:02:56.427Z,29.90
2018-02-10T09:03:56.417Z,30.40
2018-02-10T09:04:56.404Z,29.70
2018-02-10T09:05:56.392Z,30.20
2018-02-10T09:06:56.383Z,29.40
2018-02-10T09:07:56.372Z,31.70
2018-02-10T09:08:56.360Z,31.50
2018-02-10T09:09:56.392Z,32.00
2018-02-10T09:10:56.343Z,30.80
2018-02-10T09:11:56.332Z,33.00
2018-02-10T09:12:56.321Z,33.10
2018-02-10T09:13:56.310Z,31.90
2018-02-10T09:14:56.299Z,31.20
2018-02-10T09:15:56.289Z,31.30
2018-02-10T09:16:56.278Z,31.30
2018-02-10T09:17:56.267Z,30.70
2018-02-10T09:18:56.252Z,32.10
2018-02-10T09:19:56.241Z,31.60
2018-02-10T09:20:56.229Z,31.10
2018-02-10T09:21:56.219Z,31.00
2018-02-10T09:22:56.213Z,30.90
2018-02-10T09:23:56.202Z,30.60
2018-02-10T09:24:56.190Z,30.40
2018-02-10T09:25:56.225Z,31.70
2018-02-10T09:26:56.165Z,30.70
2018-02-10T09:27:56.155Z,29.20
2018-02-10T09:28:56.143Z,29.80
2018-02-10T09:29:56.132Z,30.30
2018-02-10T09:30:56.122Z,30.70
2018-02-10T09:31:56.111Z,29.10
2018-02-10T09:32:56.100Z,29.20
2018-02-10T09:33:56.090Z,28.40
2018-02-10T09:34:56.083Z,29.90
2018-02-10T09:35:56.073Z,29.00
2018-02-10T09:36:56.061Z,28.40
2018-02-10T09:37:56.051Z,29.40
2018-02-10T09:38:56.041Z,28.60
2018-02-10T09:39:56.076Z,29.20
2018-02-10T09:40:56.018Z,30.10
2018-02-10T09:41:56.012Z,29.40
2018-02-10T09:42:55.999Z,28.50
2018-02-10T09:43:55.984Z,28.60
2018-02-10T09:44:55.971Z,27.90
2018-02-10T09:45:55.961Z,28.60
2018-02-10T09:46:55.950Z,28.60
2018-02-10T09:47:55.941Z,29.30
2018-02-10T09:48:55.929Z,28.20
2018-02-10T09:49:55.918Z,28.20
2018-02-10T09:50:55.912Z,28.10
2018-02-10T09:51:55.902Z,27.60
2018-02-10T09:52:55.890Z,27.40
2018-02-10T09:53:55.882Z,28.00
2018-02-10T09:54:55.870Z,26.10
2018-02-10T09:55:55.859Z,25.90
2018-02-10T09:56:55.849Z,27.10
2018-02-10T09:57:55.838Z,26.10
2018-02-10T09:58:55.823Z,27.10
2018-02-10T09:59:55.813Z,27.00
2018-02-10T10:00:55.801Z,28.00
2018-02-10T10:01:55.791Z,28.30
2018-02-10T10:02:55.781Z,27.50
2018-02-10T10:03:55.770Z,27.30
2018-02-10T10:04:55.759Z,27.10
2018-02-10T10:05:55.754Z,27.00
2018-02-10T10:06:55.742Z,27.30
2018-02-10T10:07:55.733Z,28.10
2018-02-10T10:08:55.721Z,26.90
2018-02-10T10:09:55.712Z,28.00
2018-02-10T10:10:55.702Z,26.60
2018-02-10T10:11:55.690Z,27.40
2018-02-10T10:12:55.679Z,27.30
2018-02-10T10:13:55.669Z,26.20
2018-02-10T10:14:55.655Z,27.50
2018-02-10T10:15:55.644Z,28.90
2018-02-10T10:16:55.633Z,27.40
2018-02-10T10:17:55.627Z,27.40
2018-02-10T10:18:55.614Z,28.60
2018-02-10T10:19:55.602Z,27.60
2018-02-10T10:20:55.591Z,28.30
2018-02-10T10:21:55.581Z,28.30
2018-02-10T10:22:55.577Z,27.80
2018-02-10T10:23:55.567Z,28.90
2018-02-10T10:24:55.555Z,29.50
2018-02-10T10:25:55.545Z,28.20
2018-02-10T10:26:55.531Z,29.10
2018-02-10T10:27:55.524Z,28.40
2018-02-10T10:28:55.510Z,28.50
2018-02-10T10:29:55.500Z,29.00
2018-02-10T10:30:55.495Z,29.50
2018-02-10T10:31:55.484Z,28.30
2018-02-10T10:32:55.474Z,30.30
2018-02-10T10:33:55.464Z,30.20
2018-02-10T10:34:55.455Z,30.00
2018-02-10T10:35:55.445Z,29.60
2018-02-10T10:36:55.434Z,28.80
2018-02-10T10:37:55.427Z,30.30
2018-02-10T10:38:55.410Z,30.70
2018-02-10T10:39:55.436Z,31.30
2018-02-10T10:40:55.390Z,29.90
2018-02-10T10:41:55.380Z,30.50
2018-02-10T10:42:55.379Z,30.60
2018-02-10T10:43:55.361Z,31.00
2018-02-10T10:44:55.349Z,31.20
2018-02-10T10:45:55.340Z,31.60
2018-02-10T10:46:55.334Z,30.90
2018-02-10T10:47:55.325Z,32.00
2018-02-10T10:48:55.314Z,31.90
2018-02-10T10:49:55.314Z,32.70
2018-02-10T10:50:55.294Z,31.80
2018-02-10T10:51:55.285Z,33.70
2018-02-10T10:52:55.273Z,34.40
2018-02-10T10:53:55.264Z,35.20
2018-02-10T10:54:55.251Z,32.10
2018-02-10T10:55:55.240Z,31.80
2018-02-10T10:56:55.230Z,32.60
2018-02-10T10:57:55.221Z,31.10
2018-02-10T10:58:55.211Z,35.70
2018-02-10T10:59:55.204Z,32.30
2018-02-10T11:00:55.193Z,35.50
2018-02-10T11:01:55.181Z,32.60
2018-02-10T11:02:55.179Z,31.60
2018-02-10T11:03:55.166Z,31.80
2018-02-10T11:04:55.155Z,32.30
2018-02-10T11:05:55.146Z,31.50
2018-02-10T11:06:55.136Z,30.30
2018-02-10T11:07:55.128Z,29.80
2018-02-10T11:08:55.115Z,30.70
2018-02-10T11:09:55.105Z,30.00
2018-02-10T11:10:55.091Z,30.70
2018-02-10T11:11:55.081Z,31.90
2018-02-10T11:12:55.071Z,30.40
2018-02-10T11:13:55.060Z,31.60
2018-02-10T11:14:55.051Z,30.60
2018-02-10T11:15:55.042Z,30.80
2018-02-10T11:16:55.032Z,30.80
2018-02-10T11:17:55.022Z,30.70
2018-02-10T11:18:55.019Z,28.80
2018-02-10T11:19:55.006Z,30.50
2018-02-10T11:20:54.995Z,31.40
2018-02-10T11:21:54.986Z,29.10
2018-02-10T11:22:54.976Z,29.80
2018-02-10T11:23:54.965Z,30.20
2018-02-10T11:24:54.955Z,29.70
2018-02-10T11:25:54.948Z,30.00
2018-02-10T11:26:54.933Z,29.70
2018-02-10T11:27:54.922Z,29.90
2018-02-10T11:28:54.912Z,30.20
2018-02-10T11:29:54.902Z,29.00
2018-02-10T11:30:54.898Z,29.50
2018-02-10T11:31:54.887Z,29.90
2018-02-10T11:32:54.876Z,31.60
2018-02-10T11:33:54.866Z,31.10
2018-02-10T11:34:54.853Z,31.70
2018-02-10T11:35:54.843Z,31.40
2018-02-10T11:36:54.833Z,31.80
2018-02-10T11:37:54.822Z,33.50
2018-02-10T11:38:54.814Z,32.00
2018-02-10T11:39:54.803Z,32.20
2018-02-10T11:40:54.792Z,32.20
2018-02-10T11:41:54.785Z,31.10
2018-02-10T11:42:54.778Z,31.50
2018-02-10T11:43:54.769Z,32.20
2018-02-10T11:44:54.758Z,31.50
2018-02-10T11:45:54.749Z,33.10
2018-02-10T11:46:54.739Z,33.30
2018-02-10T11:47:54.730Z,32.90
2018-02-10T11:48:54.719Z,32.80
2018-02-10T11:49:54.710Z,33.00
2018-02-10T11:50:54.696Z,33.70
2018-02-10T11:51:54.687Z,34.10
2018-02-10T11:52:54.676Z,33.00
2018-02-10T11:53:54.667Z,34.00
2018-02-10T11:54:54.657Z,33.70
2018-02-10T11:55:54.686Z,31.80
2018-02-10T11:56:54.672Z,32.20
2018-02-10T11:57:54.628Z,34.20
2018-02-10T11:58:54.622Z,34.00
2018-02-10T11:59:54.613Z,32.30
2018-02-10T12:00:54.603Z,32.80
2018-02-10T12:01:54.591Z,34.60
2018-02-10T12:02:54.582Z,33.60
2018-02-10T12:03:54.573Z,34.40
2018-02-10T12:04:54.563Z,34.90
2018-02-10T12:05:54.553Z,35.60
2018-02-10T12:06:54.540Z,35.70
2018-02-10T12:07:54.530Z,34.20
2018-02-10T12:08:54.519Z,34.20
2018-02-10T12:09:54.511Z,34.30
2018-02-10T12:10:54.501Z,32.80
2018-02-10T12:11:54.490Z,34.20
2018-02-10T12:12:54.479Z,33.80
2018-02-10T12:13:54.470Z,35.20
2018-02-10T12:14:54.465Z,36.00
2018-02-10T12:15:54.455Z,35.60
2018-02-10T12:16:54.449Z,35.00
2018-02-10T12:17:54.435Z,35.80
2018-02-10T12:18:54.426Z,36.70
2018-02-10T12:19:54.416Z,35.40
2018-02-10T12:20:54.405Z,35.30
2018-02-10T12:21:54.396Z,35.10
2018-02-10T12:22:54.382Z,35.30
2018-02-10T12:23:54.371Z,36.00
2018-02-10T12:24:54.362Z,34.90
2018-02-10T12:25:54.353Z,35.70
2018-02-10T12:26:54.343Z,35.70
2018-02-10T12:27:54.334Z,35.20
2018-02-10T12:28:54.323Z,35.50
2018-02-10T12:29:54.313Z,35.90
2018-02-10T12:30:54.308Z,36.00
2018-02-10T12:31:54.298Z,36.20
2018-02-10T12:32:54.287Z,35.90
2018-02-10T12:33:54.277Z,35.10
2018-02-10T12:34:54.264Z,36.90
2018-02-10T12:35:54.254Z,37.00
2018-02-10T12:36:54.242Z,37.20
2018-02-10T12:37:54.233Z,36.50
2018-02-10T12:38:54.227Z,35.60
2018-02-10T12:39:54.218Z,38.50
2018-02-10T12:40:54.210Z,36.50
2018-02-10T12:41:54.202Z,36.90
2018-02-10T12:42:54.187Z,37.30
2018-02-10T12:43:54.177Z,37.50
2018-02-10T12:44:54.166Z,38.90
2018-02-10T12:45:54.208Z,38.30
2018-02-10T12:46:54.142Z,37.90
2018-02-10T12:47:54.132Z,38.40
2018-02-10T12:48:54.121Z,38.30
2018-02-10T12:49:54.111Z,39.50
2018-02-10T12:50:54.101Z,39.00
2018-02-10T12:51:54.090Z,40.30